Time;durP1;ratioP1;P1;durP2;ratioP2;P2;SDS_P1;SDS_P2;PMS_P1;PMS_P2;Temp;Humidity;BMP_temperature;BMP_pressure;BME280_temperature;BME280_humidity;BME280_pressure;Samples;Min_cycle;Max_cycle;Signal;HPM_P1;HPM_P2
2022/08/15 00:00:13;;;;;;;0.40;0.40;;;25.00;58.10;;;;;;5065720;28;20025;-26
2022/08/15 00:02:43;;;;;;;0.30;0.30;;;25.00;58.10;;;;;;5067044;28;20037;-28
2022/08/15 00:05:14;;;;;;;0.30;0.30;;;25.00;58.10;;;;;;5065738;28;20029;-26
2022/08/15 00:07:40;;;;;;;0.30;0.30;;;25.00;58.10;;;;;;5063355;28;20028;-28
2022/08/15 00:10:06;;;;;;;0.30;0.30;;;25.00;58.10;;;;;;5065946;28;20063;-27
2022/08/15 00:12:32;;;;;;;0.40;0.40;;;25.00;58.10;;;;;;5065971;28;20752;-27
2022/08/15 00:14:57;;;;;;;0.40;0.40;;;25.00;58.10;;;;;;5065951;28;20025;-24
2022/08/15 00:17:24;;;;;;;0.40;0.40;;;25.00;58.10;;;;;;5067308;28;20024;-26
2022/08/15 00:19:49;;;;;;;0.45;0.45;;;25.00;58.10;;;;;;5067431;28;20098;-26
2022/08/15 00:22:17;;;;;;;0.50;0.50;;;25.00;58.10;;;;;;5066135;28;20487;-26
2022/08/15 00:24:44;;;;;;;0.40;0.40;;;25.00;58.20;;;;;;5065594;28;20402;-26
2022/08/15 00:27:09;;;;;;;0.40;0.40;;;25.00;58.20;;;;;;5050806;28;20035;-26
2022/08/15 00:29:35;;;;;;;0.40;0.40;;;25.00;58.10;;;;;;5064534;28;20401;-25
2022/08/15 00:32:02;;;;;;;0.50;0.50;;;24.90;58.10;;;;;;5065377;28;20029;-24
2022/08/15 00:34:27;;;;;;;0.32;0.32;;;25.00;58.20;;;;;;5067346;28;20118;-23
2022/08/15 00:36:53;;;;;;;0.40;0.40;;;25.00;58.20;;;;;;5064377;28;20496;-23
2022/08/15 00:39:20;;;;;;;0.40;0.40;;;25.00;58.20;;;;;;5064683;28;20036;-22
2022/08/15 00:41:48;;;;;;;0.43;0.40;;;25.00;58.20;;;;;;5064584;28;20040;-22
2022/08/15 00:44:24;;;;;;;0.40;0.40;;;25.00;58.10;;;;;;5060196;28;20071;-22
2022/08/15 00:46:52;;;;;;;0.38;0.38;;;25.00;58.10;;;;;;5065191;28;20029;-22
2022/08/15 00:49:17;;;;;;;0.40;0.40;;;25.00;58.10;;;;;;5062516;28;20032;-22
2022/08/15 00:52:05;;;;;;;0.40;0.40;;;24.90;58.10;;;;;;5066458;28;20093;-26
2022/08/15 00:54:34;;;;;;;0.40;0.40;;;24.90;58.10;;;;;;5049201;28;20028;-23
2022/08/15 00:57:12;;;;;;;0.55;0.30;;;25.00;58.20;;;;;;5063819;28;20029;-23
2022/08/15 00:59:44;;;;;;;0.30;0.30;;;24.90;58.10;;;;;;5032576;28;20101;-25
2022/08/15 01:02:11;;;;;;;0.35;0.35;;;25.00;58.20;;;;;;5065231;28;20119;-24
2022/08/15 01:04:37;;;;;;;0.50;0.50;;;24.90;58.20;;;;;;5067902;28;20544;-22
2022/08/15 01:07:03;;;;;;;0.43;0.43;;;25.00;58.10;;;;;;5065600;28;20033;-23
2022/08/15 01:09:28;;;;;;;0.60;0.60;;;24.90;58.10;;;;;;5069124;28;20103;-22
2022/08/15 01:11:57;;;;;;;0.57;0.40;;;24.90;58.10;;;;;;5068824;28;20479;-22
2022/08/15 01:14:23;;;;;;;0.40;0.40;;;24.90;58.10;;;;;;5052102;28;20032;-21
2022/08/15 01:16:49;;;;;;;0.40;0.40;;;24.90;58.10;;;;;;5033029;28;20025;-22
2022/08/15 01:19:16;;;;;;;0.30;0.30;;;24.90;58.10;;;;;;5054056;28;20029;-22
2022/08/15 01:22:06;;;;;;;0.47;0.47;;;24.90;58.10;;;;;;5069394;28;20033;-22
2022/08/15 01:25:05;;;;;;;0.43;0.38;;;24.90;58.20;;;;;;5068158;28;20029;-22
2022/08/15 01:27:34;;;;;;;0.43;0.43;;;24.90;58.20;;;;;;5053841;28;20389;-24
2022/08/15 01:30:00;;;;;;;0.50;0.50;;;24.90;58.20;;;;;;5049993;28;20036;-21
2022/08/15 01:32:26;;;;;;;0.40;0.40;;;24.90;58.20;;;;;;5053358;28;20032;-22
2022/08/15 01:34:52;;;;;;;0.43;0.43;;;24.90;58.20;;;;;;5070200;28;20442;-23
2022/08/15 01:37:17;;;;;;;0.30;0.30;;;24.90;58.20;;;;;;5064692;28;20024;-24
2022/08/15 01:40:15;;;;;;;0.60;0.60;;;24.90;58.20;;;;;;5066681;28;20071;-22
2022/08/15 01:42:44;;;;;;;0.40;0.40;;;24.90;58.20;;;;;;5052336;28;20456;-23
2022/08/15 01:45:21;;;;;;;0.50;0.50;;;24.90;58.20;;;;;;5053905;28;20086;-25
2022/08/15 01:47:48;;;;;;;0.40;0.40;;;24.90;58.20;;;;;;5066699;28;20372;-22
2022/08/15 01:50:26;;;;;;;0.52;0.52;;;24.90;58.20;;;;;;5052652;28;20107;-24
2022/08/15 01:52:56;;;;;;;0.50;0.50;;;24.90;58.20;;;;;;5070023;28;20583;-21
2022/08/15 01:55:36;;;;;;;0.47;0.47;;;24.90;58.80;;;;;;5053464;28;20020;-22
2022/08/15 01:58:03;;;;;;;0.45;0.45;;;24.90;58.20;;;;;;5068704;28;20020;-22
2022/08/15 02:00:29;;;;;;;0.30;0.30;;;24.90;58.20;;;;;;5051661;28;20021;-24
2022/08/15 02:02:55;;;;;;;0.50;0.50;;;24.90;58.20;;;;;;5068710;28;20487;-23
2022/08/15 02:05:20;;;;;;;0.77;0.77;;;24.90;58.20;;;;;;5050827;28;20391;-22
2022/08/15 02:07:46;;;;;;;0.40;0.40;;;24.90;58.20;;;;;;5069729;28;20044;-22
2022/08/15 02:10:12;;;;;;;0.47;0.47;;;24.90;58.20;;;;;;5068546;28;20414;-22
2022/08/15 02:12:38;;;;;;;0.45;0.45;;;24.90;58.20;;;;;;5068597;28;20074;-26
2022/08/15 02:15:07;;;;;;;0.38;0.38;;;24.90;58.20;;;;;;5069015;28;20582;-23
2022/08/15 02:17:33;;;;;;;0.40;0.40;;;24.90;58.20;;;;;;5068484;28;20021;-22
2022/08/15 02:19:59;;;;;;;0.60;0.60;;;24.90;58.20;;;;;;5070240;28;20051;-22
2022/08/15 02:22:26;;;;;;;0.50;0.50;;;24.90;58.80;;;;;;5069915;28;20020;-22
2022/08/15 02:24:55;;;;;;;0.50;0.50;;;24.90;58.20;;;;;;5066595;28;20032;-23
2022/08/15 02:27:21;;;;;;;0.60;0.60;;;24.90;58.20;;;;;;5066468;28;20025;-24
2022/08/15 02:29:47;;;;;;;0.50;0.50;;;24.90;58.20;;;;;;5069020;28;20039;-25
2022/08/15 02:32:15;;;;;;;0.55;0.55;;;24.90;58.20;;;;;;5068030;28;20024;-23
2022/08/15 02:34:41;;;;;;;0.60;0.60;;;24.90;58.20;;;;;;5069217;28;20106;-24
2022/08/15 02:37:08;;;;;;;0.50;0.50;;;24.90;58.20;;;;;;5067592;28;20086;-23
2022/08/15 02:39:34;;;;;;;0.60;0.60;;;24.90;58.20;;;;;;5067530;28;20044;-23
2022/08/15 02:41:59;;;;;;;0.50;0.50;;;24.90;58.30;;;;;;5067477;28;20035;-23
2022/08/15 02:44:25;;;;;;;0.40;0.40;;;24.90;58.30;;;;;;5067137;28;20021;-22
2022/08/15 02:46:52;;;;;;;0.60;0.60;;;24.90;58.20;;;;;;5066131;28;20021;-22
2022/08/15 02:49:18;;;;;;;0.60;0.60;;;24.90;58.20;;;;;;5068018;28;20036;-23
2022/08/15 02:51:44;;;;;;;0.50;0.50;;;24.90;58.20;;;;;;5068526;28;20070;-23
2022/08/15 02:54:10;;;;;;;0.50;0.50;;;24.90;58.20;;;;;;5050389;28;20479;-24
2022/08/15 02:56:35;;;;;;;0.50;0.50;;;24.90;58.20;;;;;;5067389;28;20029;-22
2022/08/15 02:59:01;;;;;;;0.60;0.60;;;24.80;58.20;;;;;;5063384;28;20103;-23
2022/08/15 03:01:27;;;;;;;0.50;0.50;;;24.90;58.30;;;;;;5065909;28;20462;-22
2022/08/15 03:03:54;;;;;;;0.52;0.52;;;24.90;58.20;;;;;;5064125;28;20020;-22
2022/08/15 03:06:26;;;;;;;0.50;0.50;;;24.90;58.30;;;;;;5065175;28;20053;-23
2022/08/15 03:08:52;;;;;;;0.40;0.40;;;24.90;58.20;;;;;;5066851;28;20051;-22
2022/08/15 03:11:18;;;;;;;0.55;0.55;;;24.90;58.20;;;;;;5067847;28;20487;-24
2022/08/15 03:13:44;;;;;;;0.50;0.50;;;24.90;58.20;;;;;;5063850;28;20132;-26
2022/08/15 03:16:10;;;;;;;0.80;0.80;;;24.80;58.10;;;;;;5068556;28;20035;-22
2022/08/15 03:18:36;;;;;;;0.52;0.52;;;24.80;58.20;;;;;;5065238;28;20086;-24
2022/08/15 03:21:04;;;;;;;0.60;0.60;;;24.80;58.10;;;;;;5068631;28;20035;-22
2022/08/15 03:23:32;;;;;;;0.60;0.60;;;24.90;58.20;;;;;;5051674;28;20029;-24
2022/08/15 03:25:59;;;;;;;0.60;0.60;;;24.90;58.20;;;;;;5067507;28;20502;-21
2022/08/15 03:28:28;;;;;;;0.60;0.60;;;24.90;58.20;;;;;;5067836;28;20041;-26
2022/08/15 03:31:01;;;;;;;0.60;0.60;;;24.90;58.20;;;;;;5064554;28;20053;-25
2022/08/15 03:33:27;;;;;;;0.65;0.65;;;24.90;58.20;;;;;;5065856;28;20021;-24
2022/08/15 03:35:53;;;;;;;0.70;0.70;;;24.80;58.20;;;;;;5064632;28;20059;-22
2022/08/15 03:38:18;;;;;;;0.63;0.63;;;24.90;58.20;;;;;;5065463;28;20072;-24
2022/08/15 03:40:45;;;;;;;0.50;0.50;;;24.80;58.20;;;;;;5068121;28;20086;-22
2022/08/15 03:43:16;;;;;;;0.60;0.60;;;24.90;58.20;;;;;;5065457;28;20028;-23
2022/08/15 03:45:50;;;;;;;0.65;0.65;;;24.90;58.20;;;;;;5048464;28;20086;-22
2022/08/15 03:48:17;;;;;;;0.65;0.65;;;24.90;58.20;;;;;;5065986;28;20028;-26
2022/08/15 03:50:43;;;;;;;0.68;0.68;;;24.90;58.30;;;;;;5068201;28;20035;-25
2022/08/15 03:53:09;;;;;;;0.90;0.90;;;24.80;58.30;;;;;;5068208;28;20047;-23
2022/08/15 03:55:36;;;;;;;0.70;0.70;;;24.80;58.30;;;;;;5066521;28;20025;-24
2022/08/15 03:58:02;;;;;;;0.70;0.70;;;24.80;58.20;;;;;;5067186;28;20036;-22
2022/08/15 04:00:30;;;;;;;0.63;0.63;;;24.80;58.20;;;;;;5067363;28;20024;-22
2022/08/15 04:03:16;;;;;;;0.70;0.70;;;24.80;58.20;;;;;;5067613;28;20483;-22
2022/08/15 04:05:43;;;;;;;0.77;0.77;;;24.80;58.20;;;;;;5067436;28;20513;-24
2022/08/15 04:08:10;;;;;;;0.70;0.70;;;24.80;58.10;;;;;;5064672;28;20202;-23
2022/08/15 04:10:36;;;;;;;0.77;0.77;;;24.80;58.10;;;;;;5066580;28;20030;-24
2022/08/15 04:13:02;;;;;;;0.73;0.73;;;24.80;58.20;;;;;;5066318;28;20387;-25
2022/08/15 04:15:28;;;;;;;0.70;0.70;;;24.80;58.30;;;;;;5049985;28;20020;-22
2022/08/15 04:17:54;;;;;;;0.60;0.60;;;24.80;58.20;;;;;;5069023;28;20013;-22
2022/08/15 04:20:20;;;;;;;0.70;0.70;;;24.80;58.20;;;;;;5066957;28;20032;-22
2022/08/15 04:22:49;;;;;;;0.60;0.60;;;24.80;58.30;;;;;;5066013;28;20552;-22
2022/08/15 04:25:29;;;;;;;0.60;0.60;;;24.80;58.20;;;;;;5065035;28;20040;-21
2022/08/15 04:27:56;;;;;;;0.80;0.80;;;24.80;58.20;;;;;;5063981;28;20029;-22
2022/08/15 04:30:23;;;;;;;0.90;0.90;;;24.80;58.30;;;;;;5064376;28;20033;-22
2022/08/15 04:32:50;;;;;;;0.85;0.85;;;24.80;58.20;;;;;;5066215;28;20485;-22
2022/08/15 04:35:16;;;;;;;0.65;0.65;;;24.80;58.20;;;;;;5065045;28;20100;-21
2022/08/15 04:37:41;;;;;;;0.70;0.70;;;24.80;58.30;;;;;;5067778;28;20107;-22
2022/08/15 04:40:09;;;;;;;0.90;0.90;;;24.80;58.20;;;;;;5065712;28;20025;-22
2022/08/15 04:42:48;;;;;;;0.80;0.80;;;24.80;58.30;;;;;;5064917;28;20027;-22
2022/08/15 04:45:14;;;;;;;0.50;0.50;;;24.80;58.30;;;;;;5062713;28;20016;-23
2022/08/15 04:47:40;;;;;;;0.60;0.60;;;24.80;58.30;;;;;;5066108;28;20120;-24
2022/08/15 04:50:06;;;;;;;0.73;0.73;;;24.80;58.30;;;;;;5067177;28;20062;-22
2022/08/15 04:52:31;;;;;;;0.70;0.70;;;24.80;58.30;;;;;;5063873;28;20560;-22
2022/08/15 04:54:58;;;;;;;0.60;0.60;;;24.80;58.20;;;;;;5065208;28;20039;-24
2022/08/15 04:57:23;;;;;;;0.70;0.70;;;24.80;58.30;;;;;;5063961;28;20380;-22
2022/08/15 04:59:49;;;;;;;0.63;0.63;;;24.80;58.30;;;;;;5067373;28;20525;-22
2022/08/15 05:02:14;;;;;;;0.70;0.70;;;24.80;58.30;;;;;;5065150;28;20107;-22
2022/08/15 05:04:40;;;;;;;0.80;0.80;;;24.80;58.20;;;;;;5047266;28;20123;-22
2022/08/15 05:07:06;;;;;;;0.60;0.60;;;24.80;58.30;;;;;;5065386;28;20019;-22
2022/08/15 05:09:31;;;;;;;0.63;0.63;;;24.80;58.30;;;;;;5064521;28;20029;-22
2022/08/15 05:11:57;;;;;;;0.70;0.70;;;24.80;58.20;;;;;;5066362;28;20429;-28
2022/08/15 05:14:23;;;;;;;0.70;0.70;;;24.80;58.30;;;;;;5067565;28;20017;-24
2022/08/15 05:16:48;;;;;;;0.70;0.70;;;24.80;58.30;;;;;;5065825;28;20017;-22
2022/08/15 05:19:14;;;;;;;0.75;0.75;;;24.80;58.30;;;;;;5065434;28;20377;-24
2022/08/15 05:21:39;;;;;;;0.70;0.70;;;24.80;58.30;;;;;;5065476;28;20025;-22
2022/08/15 05:24:05;;;;;;;0.88;0.88;;;24.80;58.30;;;;;;5065562;28;20424;-22
2022/08/15 05:26:32;;;;;;;0.80;0.80;;;24.80;58.30;;;;;;5063890;28;20399;-22
2022/08/15 05:28:58;;;;;;;0.63;0.63;;;24.70;58.30;;;;;;5057729;28;20430;-22
2022/08/15 05:31:25;;;;;;;0.90;0.90;;;24.80;58.30;;;;;;5061684;28;20116;-23
2022/08/15 05:33:50;;;;;;;0.85;0.85;;;24.80;58.30;;;;;;5068895;28;20059;-22
2022/08/15 05:36:17;;;;;;;0.80;0.80;;;24.80;58.30;;;;;;5064414;28;20491;-24
2022/08/15 05:39:06;;;;;;;0.80;0.80;;;24.80;58.20;;;;;;5063039;28;20151;-24
2022/08/15 05:41:46;;;;;;;1.00;1.00;;;24.80;58.30;;;;;;5050102;28;20035;-22
2022/08/15 05:44:21;;;;;;;1.35;0.80;;;24.70;58.20;;;;;;5064214;28;20034;-24
2022/08/15 05:47:06;;;;;;;0.80;0.80;;;24.70;58.20;;;;;;5046589;28;20079;-22
2022/08/15 05:49:45;;;;;;;;;;;24.70;58.30;;;;;;5052433;28;20037;-22
2022/08/15 05:52:28;;;;;;;0.57;0.57;;;24.70;58.30;;;;;;5062783;28;19912;-22
2022/08/15 05:55:09;;;;;;;0.60;0.60;;;24.70;58.30;;;;;;5036741;28;20035;-23
2022/08/15 05:57:46;;;;;;;0.65;0.65;;;24.70;58.30;;;;;;5067309;28;20111;-23
2022/08/15 06:00:13;;;;;;;0.70;0.70;;;24.70;58.30;;;;;;5067624;28;20029;-22
2022/08/15 06:02:45;;;;;;;0.65;0.65;;;24.70;58.20;;;;;;5068159;28;20445;-25
2022/08/15 06:05:15;;;;;;;0.80;0.80;;;24.70;58.20;;;;;;5052519;28;20108;-23
2022/08/15 06:07:45;;;;;;;0.63;0.63;;;24.70;58.20;;;;;;5049992;28;20396;-22
2022/08/15 06:10:25;;;;;;;0.80;0.80;;;24.70;58.20;;;;;;5033460;28;20048;-23
2022/08/15 06:12:52;;;;;;;0.70;0.70;;;24.70;58.20;;;;;;5050346;28;20037;-25
2022/08/15 06:15:45;;;;;;;0.80;0.80;;;24.70;58.20;;;;;;5050071;28;20148;-25
2022/08/15 06:18:11;;;;;;;0.90;0.90;;;24.70;58.20;;;;;;5057841;28;20402;-22
2022/08/15 06:20:58;;;;;;;1.00;1.00;;;24.70;58.20;;;;;;5050321;28;20103;-22
2022/08/15 06:23:46;;;;;;;0.90;0.90;;;24.70;58.30;;;;;;5067447;28;20624;-23
2022/08/15 06:26:29;;;;;;;0.80;0.80;;;24.70;58.20;;;;;;5053147;28;20085;-29
2022/08/15 06:29:17;;;;;;;0.60;0.60;;;24.70;58.20;;;;;;5050192;28;20049;-24
2022/08/15 06:31:53;;;;;;;0.88;0.88;;;24.70;58.20;;;;;;5053582;28;20066;-22
2022/08/15 06:34:22;;;;;;;0.80;0.80;;;24.70;58.20;;;;;;5067864;28;20087;-22
2022/08/15 06:36:55;;;;;;;0.80;0.80;;;24.70;58.20;;;;;;5066709;28;20040;-22
2022/08/15 06:39:25;;;;;;;0.85;0.85;;;24.70;58.20;;;;;;5016371;28;20037;-22
2022/08/15 06:42:37;;;;;;;0.82;0.82;;;24.70;58.20;;;;;;5026381;28;20053;-22
2022/08/15 06:45:25;;;;;;;0.77;0.77;;;24.70;58.20;;;;;;5026787;28;20411;-22
2022/08/15 06:48:27;;;;;;;0.73;0.73;;;24.70;58.20;;;;;;5025936;28;20504;-22
2022/08/15 06:50:55;;;;;;;0.75;0.75;;;24.70;58.20;;;;;;4987030;28;20507;-22
2022/08/15 06:53:46;;;;;;;0.95;0.95;;;24.70;58.20;;;;;;4987014;28;20031;-24
2022/08/15 06:56:34;;;;;;;0.90;0.90;;;24.70;58.20;;;;;;4976490;28;20417;-26
2022/08/15 06:59:14;;;;;;;0.73;0.73;;;24.70;58.20;;;;;;4971277;28;20034;-23
2022/08/15 07:01:43;;;;;;;0.82;0.82;;;24.70;58.20;;;;;;4987931;28;20050;-25
2022/08/15 07:04:27;;;;;;;1.00;1.00;;;24.70;58.20;;;;;;4988268;28;20038;-23
2022/08/15 07:07:25;;;;;;;0.90;0.90;;;24.70;58.20;;;;;;4987097;28;20801;-22
2022/08/15 07:09:52;;;;;;;1.00;1.00;;;24.70;58.60;;;;;;4967013;28;20046;-23
2022/08/15 07:12:50;;;;;;;0.90;0.90;;;24.70;58.20;;;;;;4987069;28;20046;-22
2022/08/15 07:15:28;;;;;;;0.70;0.70;;;24.70;58.20;;;;;;4945079;28;20399;-22
2022/08/15 07:18:02;;;;;;;0.73;0.73;;;24.70;58.20;;;;;;4944439;28;20035;-24
2022/08/15 07:20:28;;;;;;;0.80;0.80;;;24.70;58.20;;;;;;4933129;29;20068;-23
2022/08/15 07:22:54;;;;;;;1.00;1.00;;;24.70;58.20;;;;;;4948110;29;20797;-22
2022/08/15 07:25:25;;;;;;;0.80;0.80;;;24.70;58.20;;;;;;4973022;28;20034;-23
2022/08/15 07:28:01;;;;;;;1.00;1.00;;;24.70;58.20;;;;;;4970599;28;20557;-24
2022/08/15 07:30:48;;;;;;;0.80;0.80;;;24.70;58.20;;;;;;4970686;28;20033;-24
2022/08/15 07:33:33;;;;;;;0.88;0.88;;;24.70;58.20;;;;;;4930685;28;20046;-23
2022/08/15 07:36:07;;;;;;;0.90;0.90;;;24.70;58.20;;;;;;4968489;28;20022;-23
2022/08/15 07:38:33;;;;;;;1.00;1.00;;;24.70;58.20;;;;;;5001555;28;20544;-26
2022/08/15 07:41:17;;;;;;;0.90;0.90;;;24.70;58.80;;;;;;5025604;28;20516;-28
2022/08/15 07:43:43;;;;;;;;;;;24.70;58.20;;;;;;5026374;28;20488;-23
2022/08/15 07:46:15;;;;;;;0.90;0.90;;;24.70;58.20;;;;;;5025487;28;19924;-23
2022/08/15 07:48:41;;;;;;;0.80;0.80;;;24.70;58.20;;;;;;5026562;28;20037;-23
2022/08/15 07:51:21;;;;;;;1.20;1.20;;;24.70;58.20;;;;;;5031314;28;20033;-23
2022/08/15 07:53:58;;;;;;;1.00;1.00;;;24.70;58.20;;;;;;5049941;28;20075;-25
2022/08/15 07:56:25;;;;;;;0.93;0.93;;;24.70;58.10;;;;;;5064944;28;20065;-22
2022/08/15 07:59:07;;;;;;;0.95;0.95;;;24.70;58.10;;;;;;5064448;28;20025;-22
2022/08/15 08:01:33;;;;;;;1.00;1.00;;;24.70;58.20;;;;;;5064780;28;20024;-28
2022/08/15 08:04:11;;;;;;;1.00;1.00;;;24.70;58.20;;;;;;5067070;28;20024;-22
2022/08/15 08:06:56;;;;;;;0.75;0.75;;;24.70;58.10;;;;;;5050737;28;20021;-22
2022/08/15 08:09:29;;;;;;;0.90;0.90;;;24.70;58.10;;;;;;5032794;28;20032;-22
2022/08/15 08:12:20;;;;;;;1.10;1.10;;;24.70;58.10;;;;;;5047662;28;20044;-24
2022/08/15 08:15:02;;;;;;;1.00;1.00;;;24.70;58.20;;;;;;5051037;28;20017;-24
2022/08/15 08:17:54;;;;;;;1.00;1.00;;;24.70;58.20;;;;;;5049524;28;20159;-22
2022/08/15 08:20:20;;;;;;;1.08;1.08;;;24.70;58.20;;;;;;5052057;28;20100;-22
2022/08/15 08:22:57;;;;;;;1.25;1.13;;;24.70;58.80;;;;;;5066250;28;20518;-22
2022/08/15 08:25:27;;;;;;;0.90;0.90;;;24.70;58.20;;;;;;5031573;28;20403;-23
2022/08/15 08:27:57;;;;;;;1.00;1.00;;;24.70;58.10;;;;;;5050622;28;20036;-22
2022/08/15 08:30:25;;;;;;;1.00;1.00;;;24.70;58.20;;;;;;5048025;28;20025;-23
2022/08/15 08:33:22;;;;;;;1.13;1.13;;;24.70;58.10;;;;;;5063408;28;20047;-23
2022/08/15 08:36:40;;;;;;;1.10;1.10;;;24.70;58.10;;;;;;5048811;28;20033;-24
2022/08/15 08:39:27;;;;;;;0.90;0.90;;;24.70;58.10;;;;;;4985962;28;20046;-23
2022/08/15 08:42:11;;;;;;;1.05;1.05;;;24.70;58.20;;;;;;4986379;28;20034;-25
2022/08/15 08:44:41;;;;;;;1.10;1.10;;;24.70;58.10;;;;;;4983390;28;20045;-22
2022/08/15 08:47:13;;;;;;;0.90;0.90;;;24.70;58.10;;;;;;4966515;28;20034;-22
2022/08/15 08:49:45;;;;;;;1.23;1.23;;;24.70;58.10;;;;;;4968397;28;20141;-22
2022/08/15 08:52:18;;;;;;;1.15;1.15;;;24.70;58.10;;;;;;4983993;28;20109;-26
2022/08/15 08:55:02;;;;;;;1.17;1.17;;;24.70;58.10;;;;;;4985707;28;20050;-22
2022/08/15 08:57:37;;;;;;;1.13;1.13;;;24.70;58.10;;;;;;4984908;28;20348;-26
2022/08/15 09:00:11;;;;;;;1.38;1.35;;;24.70;58.10;;;;;;4969294;28;20038;-25
2022/08/15 09:02:41;;;;;;;1.08;1.08;;;24.70;58.10;;;;;;4983443;28;20041;-22
2022/08/15 09:05:24;;;;;;;0.90;0.90;;;24.70;58.20;;;;;;4966056;28;20031;-26
2022/08/15 09:07:54;;;;;;;1.10;1.10;;;24.70;58.40;;;;;;4969968;28;20059;-22
2022/08/15 09:10:24;;;;;;;1.20;1.20;;;24.70;58.60;;;;;;5029788;28;20041;-22
2022/08/15 09:15:35;;;;;;;1.20;1.20;;;24.80;58.50;;;;;;5049977;28;20039;-22
2022/08/15 09:18:06;;;;;;;1.10;1.10;;;24.80;58.40;;;;;;5033592;28;20028;-23
2022/08/15 09:20:36;;;;;;;1.50;1.50;;;24.80;58.50;;;;;;5031577;28;20047;-25
2022/08/15 09:23:03;;;;;;;1.00;1.00;;;24.90;58.50;;;;;;5063456;28;20028;-23
2022/08/15 09:25:29;;;;;;;1.15;1.15;;;24.90;58.50;;;;;;5033077;28;20067;-23
2022/08/15 09:28:08;;;;;;;1.15;1.15;;;24.90;58.40;;;;;;5064549;28;20032;-24
2022/08/15 09:30:34;;;;;;;1.17;1.17;;;24.90;58.00;;;;;;5050999;28;20071;-22
2022/08/15 09:33:19;;;;;;;1.40;1.40;;;24.90;58.00;;;;;;5053953;28;20024;-22
2022/08/15 09:36:11;;;;;;;1.77;1.70;;;24.90;57.90;;;;;;5050322;28;20017;-22
2022/08/15 09:39:08;;;;;;;1.33;1.33;;;24.90;58.00;;;;;;5055383;28;20057;-24
2022/08/15 09:42:13;;;;;;;1.42;1.42;;;24.90;58.00;;;;;;5036577;28;20052;-22
2022/08/15 09:44:49;;;;;;;1.38;1.38;;;24.90;58.10;;;;;;4960112;28;20035;-30
2022/08/15 09:47:33;;;;;;;1.50;1.50;;;24.90;58.00;;;;;;4969416;28;20043;-29
2022/08/15 09:50:20;;;;;;;1.30;1.30;;;24.90;58.10;;;;;;4969328;28;20042;-25
2022/08/15 09:52:49;;;;;;;1.30;1.30;;;24.90;58.00;;;;;;4952742;28;20039;-22
2022/08/15 09:55:34;;;;;;;1.20;1.20;;;24.90;58.10;;;;;;4953478;28;20031;-22
2022/08/15 09:58:27;;;;;;;1.05;1.05;;;24.90;58.00;;;;;;4969832;28;20533;-32
2022/08/15 10:00:59;;;;;;;1.27;1.27;;;24.90;58.10;;;;;;4952829;28;20037;-22
2022/08/15 10:03:45;;;;;;;1.30;1.30;;;24.90;58.20;;;;;;4970321;28;20042;-24
2022/08/15 10:06:17;;;;;;;1.38;1.38;;;24.90;58.10;;;;;;4970530;28;20078;-24
2022/08/15 10:08:55;;;;;;;1.23;1.23;;;24.90;58.10;;;;;;4970267;28;20050;-22
2022/08/15 10:11:52;;;;;;;1.40;1.40;;;24.90;58.20;;;;;;4970103;28;20039;-23
2022/08/15 10:14:21;;;;;;;1.13;1.13;;;24.90;58.10;;;;;;4969086;28;20034;-22
2022/08/15 10:16:59;;;;;;;1.23;1.23;;;24.90;58.20;;;;;;4970123;28;20023;-27
2022/08/15 10:19:34;;;;;;;1.40;1.40;;;24.90;58.10;;;;;;5008950;28;20049;-22
2022/08/15 10:22:22;;;;;;;1.67;1.58;;;24.90;58.10;;;;;;5027724;28;20568;-22
2022/08/15 10:25:17;;;;;;;1.20;1.20;;;24.90;58.70;;;;;;5027891;28;20041;-25
2022/08/15 10:27:56;;;;;;;1.50;1.50;;;24.90;58.00;;;;;;5028916;28;20056;-26
2022/08/15 10:30:24;;;;;;;1.25;1.25;;;24.90;58.10;;;;;;5011886;28;20047;-22
2022/08/15 10:32:52;;;;;;;1.40;1.40;;;24.90;58.10;;;;;;5027238;28;20507;-22
2022/08/15 10:35:35;;;;;;;1.27;1.27;;;24.90;58.00;;;;;;5012885;28;20026;-22
2022/08/15 10:38:02;;;;;;;1.20;1.20;;;24.90;58.00;;;;;;5030917;28;22210;-22
2022/08/15 10:40:40;;;;;;;1.20;1.20;;;24.90;58.00;;;;;;5050179;28;20081;-25
2022/08/15 10:43:17;;;;;;;1.30;1.30;;;24.90;58.60;;;;;;5065818;28;20403;-25
2022/08/15 10:45:55;;;;;;;1.70;1.60;;;24.90;58.00;;;;;;5066444;28;20074;-22
2022/08/15 10:48:41;;;;;;;1.52;1.52;;;24.90;58.00;;;;;;5064756;28;20024;-22
2022/08/15 10:51:44;;;;;;;1.42;1.42;;;24.90;58.10;;;;;;5065596;28;20025;-22
2022/08/15 10:54:22;;;;;;;1.40;1.40;;;24.90;58.10;;;;;;5068036;28;20024;-21
2022/08/15 10:56:54;;;;;;;1.30;1.30;;;24.90;58.10;;;;;;5067369;28;20032;-22
2022/08/15 10:59:23;;;;;;;1.35;1.35;;;24.90;58.10;;;;;;5051054;28;20045;-26
2022/08/15 11:01:50;;;;;;;1.40;1.40;;;24.90;58.20;;;;;;5052025;28;20059;-24
2022/08/15 11:04:29;;;;;;;1.45;1.45;;;24.90;58.20;;;;;;5066459;28;21612;-22
2022/08/15 11:06:54;;;;;;;1.30;1.30;;;24.90;58.30;;;;;;5035033;28;20020;-22
2022/08/15 11:09:21;;;;;;;1.50;1.50;;;24.90;58.20;;;;;;5063857;28;20059;-22
2022/08/15 11:11:53;;;;;;;1.38;1.38;;;25.00;58.30;;;;;;5066608;28;20024;-24
2022/08/15 11:14:24;;;;;;;1.35;1.35;;;25.00;58.20;;;;;;5050495;28;20166;-21
2022/08/15 11:16:54;;;;;;;1.55;1.45;;;24.90;58.30;;;;;;5049306;28;20051;-22
2022/08/15 11:19:24;;;;;;;1.50;1.50;;;25.00;58.20;;;;;;5066046;28;20024;-22
2022/08/15 11:21:52;;;;;;;1.50;1.50;;;24.90;58.20;;;;;;5048526;28;20035;-25
2022/08/15 11:24:27;;;;;;;1.40;1.40;;;25.00;58.20;;;;;;5049803;28;20082;-31
2022/08/15 11:27:08;;;;;;;1.30;1.30;;;25.00;58.20;;;;;;5068109;28;20052;-22
2022/08/15 11:29:33;;;;;;;1.30;1.30;;;25.00;58.20;;;;;;5048136;28;20522;-22
2022/08/15 11:31:59;;;;;;;1.30;1.30;;;25.00;58.30;;;;;;5050722;28;20029;-23
2022/08/15 11:34:36;;;;;;;1.23;1.23;;;24.90;58.20;;;;;;5065302;28;20406;-23
2022/08/15 11:37:22;;;;;;;1.40;1.40;;;25.00;58.30;;;;;;5067241;28;20486;-21
2022/08/15 11:39:59;;;;;;;1.35;1.35;;;25.00;58.30;;;;;;5032326;28;20060;-22
2022/08/15 11:42:27;;;;;;;1.42;1.42;;;24.90;58.30;;;;;;5064526;28;20046;-23
2022/08/15 11:44:59;;;;;;;1.50;1.50;;;24.90;58.30;;;;;;5034634;28;20082;-22
2022/08/15 11:47:26;;;;;;;1.13;1.13;;;25.00;58.30;;;;;;5066119;28;20029;-24
2022/08/15 11:49:58;;;;;;;1.70;1.60;;;25.00;58.30;;;;;;5033789;28;20031;-25
2022/08/15 11:52:31;;;;;;;1.40;1.40;;;25.00;58.30;;;;;;5034644;28;20082;-22
2022/08/15 11:55:18;;;;;;;1.58;1.58;;;25.00;58.30;;;;;;5049968;28;20017;-23
2022/08/15 11:57:49;;;;;;;1.40;1.40;;;24.90;58.30;;;;;;5064806;28;20029;-23
2022/08/15 12:00:26;;;;;;;1.40;1.40;;;25.00;58.30;;;;;;5048513;28;20027;-22
2022/08/15 12:02:52;;;;;;;1.50;1.50;;;25.00;58.30;;;;;;5066385;28;20498;-23
2022/08/15 12:05:27;;;;;;;1.60;1.60;;;24.90;58.30;;;;;;5065178;28;20506;-22
2022/08/15 12:07:55;;;;;;;1.50;1.50;;;25.00;58.30;;;;;;5065849;28;20016;-22
2022/08/15 12:10:32;;;;;;;1.42;1.42;;;25.00;58.30;;;;;;5049732;28;20040;-25
2022/08/15 12:12:58;;;;;;;1.35;1.35;;;25.00;58.30;;;;;;5049621;28;20096;-24
2022/08/15 12:15:33;;;;;;;1.33;1.33;;;25.00;58.30;;;;;;5066328;28;20112;-22
2022/08/15 12:18:17;;;;;;;1.50;1.50;;;25.00;58.30;;;;;;5065459;28;20507;-22
2022/08/15 12:20:56;;;;;;;1.38;1.38;;;25.00;58.30;;;;;;5064673;28;20103;-22
2022/08/15 12:23:35;;;;;;;1.50;1.50;;;25.00;58.30;;;;;;5065751;28;20100;-23
2022/08/15 12:26:04;;;;;;;1.50;1.50;;;25.00;58.20;;;;;;5065828;28;20016;-22
2022/08/15 12:28:30;;;;;;;1.70;1.70;;;25.00;58.20;;;;;;5064812;28;20024;-22
2022/08/15 12:31:19;;;;;;;1.48;1.48;;;25.00;58.30;;;;;;5067514;28;20031;-24
2022/08/15 12:33:45;;;;;;;1.50;1.50;;;25.00;58.30;;;;;;5065786;28;20024;-23
2022/08/15 12:36:11;;;;;;;1.42;1.42;;;25.00;58.20;;;;;;5033218;28;20064;-22
2022/08/15 12:38:37;;;;;;;1.50;1.50;;;25.00;58.20;;;;;;5066355;28;20399;-22
2022/08/15 12:41:02;;;;;;;1.75;1.70;;;25.00;58.80;;;;;;5065111;28;20029;-22
2022/08/15 12:43:29;;;;;;;1.42;1.42;;;25.00;58.20;;;;;;5049060;28;20044;-24
2022/08/15 12:45:55;;;;;;;1.50;1.40;;;25.00;58.20;;;;;;5048927;28;20549;-23
2022/08/15 12:48:23;;;;;;;1.40;1.40;;;25.00;58.20;;;;;;5064400;28;20043;-22
2022/08/15 12:50:48;;;;;;;1.38;1.38;;;25.00;58.10;;;;;;5047632;28;20021;-25
2022/08/15 12:53:14;;;;;;;1.20;1.20;;;25.00;58.10;;;;;;5063898;28;20508;-24
2022/08/15 12:55:41;;;;;;;1.40;1.40;;;25.00;58.10;;;;;;5064965;28;20472;-27
2022/08/15 12:58:08;;;;;;;1.35;1.35;;;25.00;58.10;;;;;;5066511;28;20020;-23
2022/08/15 13:00:34;;;;;;;1.67;1.60;;;25.00;58.10;;;;;;5065301;28;20032;-22
2022/08/15 13:03:28;;;;;;;1.40;1.40;;;25.00;58.00;;;;;;5031317;28;20526;-21
2022/08/15 13:06:05;;;;;;;1.60;1.60;;;25.10;58.10;;;;;;5065299;28;20020;-22
2022/08/15 13:08:31;;;;;;;1.40;1.40;;;25.00;58.00;;;;;;5054957;28;20336;-22
2022/08/15 13:10:57;;;;;;;1.30;1.30;;;25.00;58.70;;;;;;5061962;28;20044;-22
2022/08/15 13:13:22;;;;;;;1.45;1.45;;;25.10;58.00;;;;;;5065467;28;20016;-23
2022/08/15 13:15:48;;;;;;;1.20;1.20;;;25.00;58.10;;;;;;5067405;28;20111;-25
2022/08/15 13:18:24;;;;;;;1.60;1.60;;;25.00;58.00;;;;;;5064792;28;20013;-23